createdAt,value
2017-12-19T00:00:58.827Z,1.59
2017-12-19T00:02:04.569Z,1.62
2017-12-19T00:03:10.324Z,1.63
2017-12-19T00:04:15.618Z,1.63
2017-12-19T00:05:20.974Z,1.63
2017-12-19T00:06:30.343Z,1.61
2017-12-19T00:07:38.085Z,1.58
2017-12-19T00:08:43.278Z,1.63
2017-12-19T00:09:48.998Z,1.58
2017-12-19T00:10:53.985Z,1.55
2017-12-19T00:11:59.558Z,1.58
2017-12-19T00:13:05.474Z,1.52
2017-12-19T00:14:11.670Z,1.49
2017-12-19T00:15:17.579Z,1.55
2017-12-19T00:16:26.851Z,1.56
2017-12-19T00:17:35.159Z,1.59
2017-12-19T00:18:41.083Z,1.57
2017-12-19T00:19:46.908Z,1.54
2017-12-19T00:20:52.172Z,1.52
2017-12-19T00:21:57.708Z,1.53
2017-12-19T00:23:03.033Z,1.58
2017-12-19T00:24:10.590Z,1.57
2017-12-19T00:25:19.152Z,1.59
2017-12-19T00:26:24.402Z,1.55
2017-12-19T00:27:30.618Z,1.59
2017-12-19T00:28:37.233Z,1.55
2017-12-19T00:29:43.416Z,1.55
2017-12-19T00:30:50.178Z,1.57
2017-12-19T00:31:56.088Z,1.59
2017-12-19T00:33:02.343Z,1.66
2017-12-19T00:34:08.203Z,1.66
2017-12-19T00:35:13.769Z,1.68
2017-12-19T00:36:19.349Z,1.64
2017-12-19T00:37:24.591Z,1.63
2017-12-19T00:38:30.899Z,1.66
2017-12-19T00:39:39.027Z,1.72
2017-12-19T00:40:44.878Z,1.70
2017-12-19T00:41:50.706Z,1.76
2017-12-19T00:42:56.963Z,1.77
2017-12-19T00:44:03.190Z,1.82
2017-12-19T00:45:09.040Z,1.76
2017-12-19T00:46:18.883Z,1.77
2017-12-19T00:47:26.188Z,1.73
2017-12-19T00:48:32.383Z,1.72
2017-12-19T00:49:38.225Z,1.76
2017-12-19T00:50:44.269Z,1.70
2017-12-19T00:51:50.215Z,1.67
2017-12-19T00:52:58.286Z,1.76
2017-12-19T00:54:04.502Z,1.80
2017-12-19T00:55:10.386Z,1.82
2017-12-19T00:56:17.044Z,1.86
2017-12-19T00:57:22.950Z,1.87
2017-12-19T00:58:28.887Z,1.78
2017-12-19T00:59:34.473Z,1.80
2017-12-19T01:00:40.731Z,1.82
2017-12-19T01:01:46.367Z,1.78
2017-12-19T01:02:51.972Z,1.74
2017-12-19T01:03:58.182Z,1.76
2017-12-19T01:05:03.790Z,1.81
2017-12-19T01:06:09.329Z,1.75
2017-12-19T01:07:15.223Z,1.77
2017-12-19T01:08:26.287Z,1.73
2017-12-19T01:09:32.542Z,1.72
2017-12-19T01:10:38.461Z,1.71
2017-12-19T01:11:44.366Z,1.68
2017-12-19T01:12:50.338Z,1.60
2017-12-19T01:13:56.639Z,1.55
2017-12-19T01:15:02.582Z,1.54
2017-12-19T01:16:08.782Z,1.52
2017-12-19T01:17:15.001Z,1.54
2017-12-19T01:18:20.865Z,1.59
2017-12-19T01:19:27.157Z,1.57
2017-12-19T01:20:33.416Z,1.63
2017-12-19T01:21:41.661Z,1.69
2017-12-19T01:22:47.510Z,1.74
2017-12-19T01:23:53.752Z,1.76
2017-12-19T01:24:59.629Z,1.72
2017-12-19T01:26:05.820Z,1.76
2017-12-19T01:27:12.126Z,1.80
2017-12-19T01:28:17.632Z,1.78
2017-12-19T01:29:23.881Z,1.78
2017-12-19T01:30:30.078Z,1.76
2017-12-19T01:31:36.339Z,1.74
2017-12-19T01:32:42.628Z,1.73
2017-12-19T01:33:48.867Z,1.80
2017-12-19T01:34:55.782Z,1.80
2017-12-19T01:36:02.849Z,1.72
2017-12-19T01:37:09.151Z,1.76
2017-12-19T01:38:17.284Z,1.72
2017-12-19T01:39:23.496Z,1.68
2017-12-19T01:40:29.218Z,1.68
2017-12-19T01:41:35.468Z,1.61
2017-12-19T01:42:42.026Z,1.65
2017-12-19T01:43:48.278Z,1.65
2017-12-19T01:44:54.515Z,1.72
2017-12-19T01:46:00.724Z,1.76
2017-12-19T01:47:06.934Z,1.75
2017-12-19T01:48:13.174Z,1.70
2017-12-19T01:49:24.316Z,1.69
2017-12-19T01:50:30.552Z,1.70
2017-12-19T01:51:36.784Z,1.63
2017-12-19T01:52:42.969Z,1.57
2017-12-19T01:53:49.174Z,1.59
2017-12-19T01:54:55.611Z,1.55
2017-12-19T01:56:01.862Z,1.56
2017-12-19T01:57:08.087Z,1.57
2017-12-19T01:58:14.313Z,1.57
2017-12-19T01:59:20.507Z,1.61
2017-12-19T02:00:26.745Z,1.57
2017-12-19T02:01:31.812Z,1.55
2017-12-19T02:02:37.765Z,1.53
2017-12-19T02:03:44.637Z,1.61
2017-12-19T02:04:50.944Z,1.66
2017-12-19T02:05:57.158Z,1.66
2017-12-19T02:07:03.618Z,1.64
2017-12-19T02:08:09.849Z,1.62
2017-12-19T02:09:16.066Z,1.68
2017-12-19T02:10:22.128Z,1.71
2017-12-19T02:11:28.396Z,1.71
2017-12-19T02:12:34.657Z,1.65
2017-12-19T02:13:40.955Z,1.67
2017-12-19T02:14:51.230Z,1.71
2017-12-19T02:15:56.853Z,1.73
2017-12-19T02:17:02.390Z,1.76
2017-12-19T02:18:07.989Z,1.75
2017-12-19T02:19:13.511Z,1.77
2017-12-19T02:20:18.822Z,1.72
2017-12-19T02:21:24.267Z,1.68
2017-12-19T02:22:29.831Z,1.67
2017-12-19T02:23:35.119Z,1.66
2017-12-19T02:24:40.432Z,1.76
2017-12-19T02:25:45.725Z,1.78
2017-12-19T02:26:52.838Z,1.70
2017-12-19T02:27:58.062Z,1.65
2017-12-19T02:29:03.341Z,1.68
2017-12-19T02:30:08.620Z,1.69
2017-12-19T02:31:14.160Z,1.67
2017-12-19T02:32:19.473Z,1.66
2017-12-19T02:33:24.755Z,1.64
2017-12-19T02:34:30.020Z,1.59
2017-12-19T02:35:35.287Z,1.57
2017-12-19T02:36:40.551Z,1.56
2017-12-19T02:37:51.749Z,1.56
2017-12-19T02:38:57.348Z,1.58
2017-12-19T02:40:02.639Z,1.62
2017-12-19T02:41:07.924Z,1.58
2017-12-19T02:42:13.190Z,1.55
2017-12-19T02:43:21.313Z,1.64
2017-12-19T02:44:26.616Z,1.69
2017-12-19T02:45:32.785Z,1.67
2017-12-19T02:46:38.004Z,1.65
2017-12-19T02:47:43.226Z,1.67
2017-12-19T02:48:48.452Z,1.72
2017-12-19T02:49:53.840Z,1.67
2017-12-19T02:50:59.174Z,1.64
2017-12-19T02:52:04.516Z,1.68
2017-12-19T02:53:09.860Z,1.72
2017-12-19T02:54:15.089Z,1.63
2017-12-19T02:55:20.363Z,1.56
2017-12-19T02:56:25.699Z,1.58
2017-12-19T02:57:31.058Z,1.55
2017-12-19T02:58:37.074Z,1.61
2017-12-19T02:59:42.690Z,1.62
2017-12-19T03:00:48.128Z,1.56
2017-12-19T03:01:53.497Z,1.52
2017-12-19T03:02:58.835Z,1.50
2017-12-19T03:04:04.145Z,1.55
2017-12-19T03:05:09.460Z,1.58
2017-12-19T03:06:15.596Z,1.60
2017-12-19T03:07:21.045Z,1.61
2017-12-19T03:08:26.305Z,1.65
2017-12-19T03:09:31.539Z,1.70
2017-12-19T03:10:36.851Z,1.75
2017-12-19T03:11:42.118Z,1.69
2017-12-19T03:12:47.544Z,1.71
2017-12-19T03:13:52.790Z,1.69
2017-12-19T03:14:58.086Z,1.65
2017-12-19T03:16:03.335Z,1.72
2017-12-19T03:17:08.604Z,1.73
2017-12-19T03:18:13.843Z,1.72
2017-12-19T03:19:19.077Z,1.69
2017-12-19T03:20:24.352Z,1.71
2017-12-19T03:21:29.595Z,1.67
2017-12-19T03:22:34.859Z,1.70
2017-12-19T03:23:40.111Z,1.73
2017-12-19T03:24:45.614Z,1.75
2017-12-19T03:25:50.842Z,1.74
2017-12-19T03:26:56.069Z,1.74
2017-12-19T03:28:06.474Z,1.80
2017-12-19T03:29:11.738Z,1.77
2017-12-19T03:30:16.988Z,1.80
2017-12-19T03:31:22.196Z,1.82
2017-12-19T03:32:27.527Z,1.84
2017-12-19T03:33:32.928Z,1.87
2017-12-19T03:34:38.145Z,1.80
2017-12-19T03:35:43.658Z,1.79
2017-12-19T03:36:48.873Z,1.81
2017-12-19T03:37:54.099Z,1.78
2017-12-19T03:38:59.705Z,1.82
2017-12-19T03:40:04.942Z,1.89
2017-12-19T03:41:10.768Z,1.89
2017-12-19T03:42:16.861Z,1.86
2017-12-19T03:43:23.723Z,1.85
2017-12-19T03:44:29.948Z,1.90
2017-12-19T03:45:36.046Z,1.94
2017-12-19T03:46:42.073Z,1.97
2017-12-19T03:47:48.343Z,1.90
2017-12-19T03:48:54.449Z,1.88
2017-12-19T03:50:03.338Z,1.85
2017-12-19T03:51:10.267Z,1.88
2017-12-19T03:52:18.071Z,1.85
2017-12-19T03:53:27.331Z,1.87
2017-12-19T03:54:34.166Z,1.86
2017-12-19T03:55:41.009Z,1.86
2017-12-19T03:56:48.108Z,1.89
2017-12-19T03:57:54.506Z,1.84
2017-12-19T03:59:01.172Z,1.86
2017-12-19T04:00:08.290Z,1.84
2017-12-19T04:01:16.224Z,1.87
2017-12-19T04:02:23.246Z,1.88
2017-12-19T04:03:30.329Z,1.88
2017-12-19T04:04:36.718Z,1.88
2017-12-19T04:05:42.322Z,1.90
2017-12-19T04:06:49.320Z,1.89
2017-12-19T04:07:56.181Z,1.90
2017-12-19T04:09:02.860Z,1.97
2017-12-19T04:10:09.575Z,1.91
2017-12-19T04:11:20.213Z,1.96
2017-12-19T04:12:28.090Z,2.02
2017-12-19T04:13:35.067Z,2.02
2017-12-19T04:14:41.855Z,2.00
2017-12-19T04:15:51.137Z,2.00
2017-12-19T04:16:59.026Z,2.02
2017-12-19T04:18:06.231Z,2.01
2017-12-19T04:19:13.335Z,1.96
2017-12-19T04:20:20.686Z,1.90
2017-12-19T04:21:28.582Z,1.86
2017-12-19T04:22:35.741Z,1.96
2017-12-19T04:23:44.096Z,1.99
2017-12-19T04:24:51.017Z,2.02
2017-12-19T04:25:58.040Z,1.97
2017-12-19T04:27:07.011Z,2.01
2017-12-19T04:28:14.015Z,2.03
2017-12-19T04:29:25.006Z,2.08
2017-12-19T04:30:32.651Z,2.06
2017-12-19T04:31:40.372Z,2.08
2017-12-19T04:32:48.142Z,2.08
2017-12-19T04:33:57.950Z,2.11
2017-12-19T04:35:05.648Z,2.10
2017-12-19T04:36:13.386Z,2.06
2017-12-19T04:37:20.707Z,1.98
2017-12-19T04:38:27.760Z,1.94
2017-12-19T04:39:34.668Z,1.93
2017-12-19T04:40:41.375Z,1.90
2017-12-19T04:41:49.124Z,1.98
2017-12-19T04:42:57.288Z,1.99
2017-12-19T04:44:04.730Z,2.05
2017-12-19T04:45:14.674Z,2.06
2017-12-19T04:46:21.489Z,2.07
2017-12-19T04:47:29.638Z,2.07
2017-12-19T04:48:37.752Z,2.09
2017-12-19T04:49:44.211Z,2.06
2017-12-19T04:50:49.800Z,2.07
2017-12-19T04:51:58.276Z,2.05
2017-12-19T04:53:05.214Z,2.02
2017-12-19T04:54:12.755Z,1.99
2017-12-19T04:55:20.056Z,1.93
2017-12-19T04:56:28.371Z,1.97
2017-12-19T04:57:35.858Z,1.94
2017-12-19T04:58:42.876Z,2.01
2017-12-19T04:59:58.300Z,2.06
2017-12-19T05:01:09.871Z,2.05
2017-12-19T05:02:18.165Z,2.15
2017-12-19T05:03:26.436Z,2.10
2017-12-19T05:04:35.290Z,2.14
2017-12-19T05:05:42.793Z,2.12
2017-12-19T05:06:50.309Z,2.10
2017-12-19T05:07:57.669Z,2.06
2017-12-19T05:09:05.724Z,2.00
2017-12-19T05:10:13.436Z,2.00
2017-12-19T05:11:22.268Z,2.05
2017-12-19T05:12:32.000Z,2.12
2017-12-19T05:13:39.997Z,2.13
2017-12-19T05:14:51.533Z,2.12
2017-12-19T05:15:59.437Z,2.10
2017-12-19T05:17:06.938Z,2.10
2017-12-19T05:18:15.369Z,2.07
2017-12-19T05:19:22.568Z,2.09
2017-12-19T05:20:30.345Z,2.13
2017-12-19T05:21:40.241Z,2.15
2017-12-19T05:22:48.445Z,2.08
2017-12-19T05:23:57.215Z,2.08
2017-12-19T05:25:04.961Z,2.07
2017-12-19T05:26:12.312Z,2.12
2017-12-19T05:27:20.633Z,2.05
2017-12-19T05:28:27.825Z,2.04
2017-12-19T05:29:36.623Z,2.03
2017-12-19T05:30:44.083Z,2.07
2017-12-19T05:31:50.882Z,2.07
2017-12-19T05:32:59.010Z,2.08
2017-12-19T05:34:06.486Z,2.11
2017-12-19T05:35:12.740Z,2.12
2017-12-19T05:36:18.978Z,2.09
2017-12-19T05:37:26.901Z,2.13
2017-12-19T05:38:37.564Z,2.10
2017-12-19T05:39:44.637Z,2.13
2017-12-19T05:40:52.939Z,2.11
2017-12-19T05:42:02.016Z,2.10
2017-12-19T05:43:10.548Z,2.14
2017-12-19T05:44:17.889Z,2.11
2017-12-19T05:45:27.044Z,2.18
2017-12-19T05:46:35.582Z,2.14
2017-12-19T05:47:42.235Z,2.17
2017-12-19T05:48:55.420Z,2.22
2017-12-19T05:50:02.307Z,2.24
2017-12-19T05:51:10.007Z,2.27
2017-12-19T05:52:17.545Z,2.23
2017-12-19T05:53:25.625Z,2.24
2017-12-19T05:54:33.348Z,2.19
2017-12-19T05:55:41.116Z,2.19
2017-12-19T05:56:48.256Z,2.22
2017-12-19T05:57:55.263Z,2.21
2017-12-19T05:59:02.607Z,2.16
2017-12-19T06:00:10.540Z,2.16
2017-12-19T06:01:16.978Z,2.19
2017-12-19T06:02:22.568Z,2.15
2017-12-19T06:03:28.447Z,2.15
2017-12-19T06:04:34.221Z,2.16
2017-12-19T06:05:44.516Z,2.19
2017-12-19T06:06:50.058Z,2.23
2017-12-19T06:07:55.898Z,2.21
2017-12-19T06:09:01.390Z,2.20
2017-12-19T06:10:07.023Z,2.13
2017-12-19T06:11:12.273Z,2.13
2017-12-19T06:12:17.847Z,2.13
2017-12-19T06:13:23.708Z,2.08
2017-12-19T06:14:29.219Z,2.06
2017-12-19T06:15:34.767Z,2.10
2017-12-19T06:16:40.647Z,2.13
2017-12-19T06:17:48.926Z,2.13
2017-12-19T06:18:54.471Z,2.08
2017-12-19T06:20:04.535Z,2.10
2017-12-19T06:21:10.141Z,2.16
2017-12-19T06:22:17.619Z,2.10
2017-12-19T06:23:25.459Z,2.04
2017-12-19T06:24:32.264Z,2.03
2017-12-19T06:25:39.805Z,2.03
2017-12-19T06:26:46.670Z,2.01
2017-12-19T06:27:53.873Z,2.02
2017-12-19T06:29:01.578Z,2.09
2017-12-19T06:30:08.663Z,2.17
2017-12-19T06:31:16.827Z,2.18
2017-12-19T06:32:23.509Z,2.15
2017-12-19T06:33:30.413Z,2.10
2017-12-19T06:34:37.714Z,2.07
2017-12-19T06:35:45.192Z,2.13
2017-12-19T06:36:52.096Z,2.17
2017-12-19T06:38:04.065Z,2.12
2017-12-19T06:39:13.336Z,2.15
2017-12-19T06:40:20.673Z,2.18
2017-12-19T06:41:28.481Z,2.21
2017-12-19T06:42:35.324Z,2.17
2017-12-19T06:43:42.605Z,2.15
2017-12-19T06:44:48.626Z,2.16
2017-12-19T06:45:55.656Z,2.14
2017-12-19T06:47:04.507Z,2.18
2017-12-19T06:48:11.480Z,2.22
2017-12-19T06:49:18.242Z,2.27
2017-12-19T06:50:26.082Z,2.27
2017-12-19T06:51:32.823Z,2.27
2017-12-19T06:52:39.176Z,2.26
2017-12-19T06:53:53.936Z,2.30
2017-12-19T06:55:05.341Z,2.29
2017-12-19T06:56:12.981Z,2.25
2017-12-19T06:57:19.608Z,2.26
2017-12-19T06:58:27.165Z,2.20
2017-12-19T06:59:33.886Z,2.24
2017-12-19T07:00:40.904Z,2.26
2017-12-19T07:01:47.596Z,2.23
2017-12-19T07:02:55.342Z,2.18
2017-12-19T07:04:03.780Z,2.24
2017-12-19T07:05:11.850Z,2.28
2017-12-19T07:06:24.062Z,2.28
2017-12-19T07:07:30.391Z,2.31
2017-12-19T07:08:39.067Z,2.33
2017-12-19T07:09:46.810Z,2.32
2017-12-19T07:10:54.921Z,2.34
2017-12-19T07:12:02.435Z,2.34
2017-12-19T07:13:11.078Z,2.30
2017-12-19T07:14:18.710Z,2.33
2017-12-19T07:15:25.808Z,2.33
2017-12-19T07:16:33.014Z,2.32
2017-12-19T07:17:40.896Z,2.32
2017-12-19T07:18:48.590Z,2.33
2017-12-19T07:19:55.049Z,2.34
2017-12-19T07:21:02.202Z,2.35
2017-12-19T07:22:10.135Z,2.34
2017-12-19T07:23:18.551Z,2.34
2017-12-19T07:24:24.530Z,2.39
2017-12-19T07:25:30.937Z,2.39
2017-12-19T07:26:37.743Z,2.37
2017-12-19T07:27:44.601Z,2.36
2017-12-19T07:28:50.921Z,2.36
2017-12-19T07:29:57.703Z,2.33
2017-12-19T07:31:05.231Z,2.35
2017-12-19T07:32:12.093Z,2.31
2017-12-19T07:33:19.360Z,2.33
2017-12-19T07:34:27.082Z,2.37
2017-12-19T07:35:34.641Z,2.41
2017-12-19T07:36:42.213Z,2.43
2017-12-19T07:37:49.318Z,2.44
2017-12-19T07:38:55.782Z,2.45
2017-12-19T07:40:01.287Z,2.48
2017-12-19T07:41:06.778Z,2.50
2017-12-19T07:42:12.300Z,2.46
2017-12-19T07:43:18.295Z,2.40
2017-12-19T07:44:23.838Z,2.43
2017-12-19T07:45:29.078Z,2.39
2017-12-19T07:46:37.099Z,2.44
2017-12-19T07:47:43.261Z,2.42
2017-12-19T07:48:49.161Z,2.38
2017-12-19T07:49:55.354Z,2.39
2017-12-19T07:51:01.543Z,2.41
2017-12-19T07:52:07.417Z,2.42
2017-12-19T07:53:13.305Z,2.44
2017-12-19T07:54:19.738Z,2.51
2017-12-19T07:55:25.943Z,2.47
2017-12-19T07:56:32.184Z,2.52
2017-12-19T07:57:38.025Z,2.48
2017-12-19T07:58:44.235Z,2.55
2017-12-19T07:59:50.567Z,2.57
2017-12-19T08:00:56.756Z,2.56
2017-12-19T08:02:02.965Z,2.58
2017-12-19T08:03:09.261Z,2.60
2017-12-19T08:04:15.145Z,2.67
2017-12-19T08:05:23.005Z,2.63
2017-12-19T08:06:31.298Z,2.65
2017-12-19T08:07:38.629Z,2.65
2017-12-19T08:08:45.510Z,2.65
2017-12-19T08:09:53.056Z,2.67
2017-12-19T08:10:59.743Z,2.70
2017-12-19T08:12:06.150Z,2.80
2017-12-19T08:13:13.780Z,2.82
2017-12-19T08:14:20.891Z,2.80
2017-12-19T08:15:27.495Z,2.79
2017-12-19T08:16:33.149Z,2.77
2017-12-19T08:17:39.981Z,2.78
2017-12-19T08:18:47.602Z,2.82
2017-12-19T08:19:54.538Z,2.85
2017-12-19T08:21:01.114Z,2.88
2017-12-19T08:22:07.113Z,2.88
2017-12-19T08:23:13.364Z,2.86
2017-12-19T08:24:19.652Z,2.89
2017-12-19T08:25:25.943Z,2.95
2017-12-19T08:26:32.187Z,2.96
2017-12-19T08:27:38.439Z,2.92
2017-12-19T08:28:44.714Z,2.92
2017-12-19T08:29:50.980Z,2.97
2017-12-19T08:30:57.211Z,2.98
2017-12-19T08:32:03.472Z,2.96
2017-12-19T08:33:09.756Z,2.94
2017-12-19T08:34:15.714Z,2.93
2017-12-19T08:35:22.828Z,2.95
2017-12-19T08:36:29.063Z,2.99
2017-12-19T08:37:35.401Z,3.01
2017-12-19T08:38:41.307Z,3.05
2017-12-19T08:39:47.564Z,3.04
2017-12-19T08:40:53.841Z,3.03
2017-12-19T08:42:00.130Z,3.03
2017-12-19T08:43:06.382Z,3.05
2017-12-19T08:44:12.674Z,3.07
2017-12-19T08:45:18.950Z,3.09
2017-12-19T08:46:24.964Z,3.10
2017-12-19T08:47:31.261Z,3.11
2017-12-19T08:48:37.566Z,3.12
2017-12-19T08:49:44.871Z,3.12
2017-12-19T08:50:51.098Z,3.15
2017-12-19T08:51:57.078Z,3.16
2017-12-19T08:53:03.405Z,3.15
2017-12-19T08:54:09.685Z,3.16
2017-12-19T08:55:15.933Z,3.20
2017-12-19T08:56:22.195Z,3.20
2017-12-19T08:57:28.084Z,3.19
2017-12-19T08:58:34.371Z,3.22
2017-12-19T08:59:40.257Z,3.29
2017-12-19T09:00:46.552Z,3.26
2017-12-19T09:01:52.785Z,3.29
2017-12-19T09:02:59.065Z,3.33
2017-12-19T09:04:05.394Z,3.38
2017-12-19T09:05:11.630Z,3.41
2017-12-19T09:06:17.909Z,3.36
2017-12-19T09:07:24.156Z,3.31
2017-12-19T09:08:33.857Z,3.31
2017-12-19T09:09:40.093Z,3.33
2017-12-19T09:10:46.330Z,3.42
2017-12-19T09:11:52.629Z,3.47
2017-12-19T09:12:58.856Z,3.47
2017-12-19T09:14:05.135Z,3.49
2017-12-19T09:15:11.384Z,3.47
2017-12-19T09:16:17.646Z,3.35
2017-12-19T09:17:23.490Z,3.33
2017-12-19T09:18:29.768Z,3.33
2017-12-19T09:19:36.085Z,3.40
2017-12-19T09:20:42.332Z,3.39
2017-12-19T09:21:48.605Z,3.36
2017-12-19T09:22:54.857Z,3.40
2017-12-19T09:24:01.285Z,3.39
2017-12-19T09:25:07.561Z,3.37
2017-12-19T09:26:13.851Z,3.34
2017-12-19T09:27:20.110Z,3.31
2017-12-19T09:28:26.394Z,3.31
2017-12-19T09:29:32.607Z,3.34
2017-12-19T09:30:38.827Z,3.40
2017-12-19T09:31:45.055Z,3.40
2017-12-19T09:32:51.338Z,3.49
2017-12-19T09:33:57.692Z,3.56
2017-12-19T09:35:03.991Z,3.50
2017-12-19T09:36:10.270Z,3.50
2017-12-19T09:37:16.486Z,3.41
2017-12-19T09:38:22.736Z,3.44
2017-12-19T09:39:29.029Z,3.41
2017-12-19T09:40:35.261Z,3.38
2017-12-19T09:41:41.450Z,3.39
2017-12-19T09:42:47.625Z,3.44
2017-12-19T09:43:53.833Z,3.48
2017-12-19T09:45:00.105Z,3.50
2017-12-19T09:46:06.385Z,3.50
2017-12-19T09:47:12.572Z,3.52
2017-12-19T09:48:18.774Z,3.52
2017-12-19T09:49:25.501Z,3.50
2017-12-19T09:50:31.766Z,3.39
2017-12-19T09:51:37.997Z,3.41
2017-12-19T09:52:44.290Z,3.41
2017-12-19T09:53:51.037Z,3.49
2017-12-19T09:54:57.242Z,3.55
2017-12-19T09:56:03.447Z,3.46
2017-12-19T09:57:09.685Z,3.42
2017-12-19T09:58:15.900Z,3.48
2017-12-19T09:59:22.142Z,3.46
2017-12-19T10:00:28.465Z,3.48
2017-12-19T10:01:34.806Z,3.47
2017-12-19T10:02:41.034Z,3.41
2017-12-19T10:03:47.328Z,3.40
2017-12-19T10:04:53.525Z,3.47
2017-12-19T10:05:59.797Z,3.43
2017-12-19T10:07:06.262Z,3.45
2017-12-19T10:08:12.546Z,3.49
2017-12-19T10:09:18.788Z,3.53
2017-12-19T10:10:24.957Z,3.51
2017-12-19T10:11:31.204Z,3.54
2017-12-19T10:12:37.437Z,3.53
2017-12-19T10:13:43.691Z,3.48
2017-12-19T10:14:50.025Z,3.43
2017-12-19T10:15:55.942Z,3.46
2017-12-19T10:17:02.172Z,3.48
2017-12-19T10:18:08.358Z,3.49
2017-12-19T10:19:14.210Z,3.44
2017-12-19T10:20:19.739Z,3.37
2017-12-19T10:21:25.321Z,3.44
2017-12-19T10:22:30.874Z,3.43
2017-12-19T10:23:36.091Z,3.41
2017-12-19T10:24:41.329Z,3.40
2017-12-19T10:25:46.660Z,3.40
2017-12-19T10:26:52.254Z,3.44
2017-12-19T10:27:57.480Z,3.49
2017-12-19T10:29:03.044Z,3.48
2017-12-19T10:30:08.703Z,3.50
2017-12-19T10:31:13.956Z,3.51
2017-12-19T10:32:19.456Z,3.52
2017-12-19T10:33:25.127Z,3.54
2017-12-19T10:34:31.482Z,3.52
2017-12-19T10:35:37.737Z,3.47
2017-12-19T10:36:43.625Z,3.51
2017-12-19T10:37:49.103Z,3.53
2017-12-19T10:38:54.973Z,3.51
2017-12-19T10:40:01.223Z,3.48
2017-12-19T10:41:07.681Z,3.41
2017-12-19T10:42:13.606Z,3.46
2017-12-19T10:43:19.519Z,3.48
2017-12-19T10:44:25.805Z,3.48
2017-12-19T10:45:31.998Z,3.50
2017-12-19T10:46:38.250Z,3.49
2017-12-19T10:47:44.430Z,3.38
2017-12-19T10:48:50.616Z,3.38
2017-12-19T10:49:56.894Z,3.31
2017-12-19T10:51:02.824Z,3.36
2017-12-19T10:52:09.028Z,3.34
2017-12-19T10:53:15.219Z,3.34
2017-12-19T10:54:21.439Z,3.37
2017-12-19T10:55:27.702Z,3.37
2017-12-19T10:56:33.962Z,3.40
2017-12-19T10:57:40.207Z,3.38
2017-12-19T10:58:46.423Z,3.42
2017-12-19T10:59:52.715Z,3.43
2017-12-19T11:00:58.940Z,3.48
2017-12-19T11:02:05.194Z,3.51
2017-12-19T11:03:11.479Z,3.42
2017-12-19T11:04:17.713Z,3.42
2017-12-19T11:05:23.904Z,3.46
2017-12-19T11:06:30.152Z,3.46
2017-12-19T11:07:36.336Z,3.43
2017-12-19T11:08:42.586Z,3.38
2017-12-19T11:09:48.816Z,3.35
2017-12-19T11:10:55.050Z,3.38
2017-12-19T11:12:01.282Z,3.34
2017-12-19T11:13:07.560Z,3.29
2017-12-19T11:14:13.749Z,3.32
2017-12-19T11:15:20.036Z,3.34
2017-12-19T11:16:26.345Z,3.35
2017-12-19T11:17:32.530Z,3.34
2017-12-19T11:18:38.761Z,3.34
2017-12-19T11:19:44.993Z,3.45
2017-12-19T11:20:51.219Z,3.37
2017-12-19T11:21:57.060Z,3.42
2017-12-19T11:23:02.322Z,3.52
2017-12-19T11:24:07.931Z,3.55
2017-12-19T11:25:13.467Z,3.50
2017-12-19T11:26:18.725Z,3.51
2017-12-19T11:27:24.009Z,3.49
2017-12-19T11:28:29.751Z,3.54
2017-12-19T11:29:35.068Z,3.53
2017-12-19T11:30:46.030Z,3.53
2017-12-19T11:31:51.273Z,3.62
2017-12-19T11:33:01.433Z,3.62
2017-12-19T11:34:06.694Z,3.63
2017-12-19T11:35:11.937Z,3.63
2017-12-19T11:36:17.250Z,3.67
2017-12-19T11:37:22.508Z,3.67
2017-12-19T11:38:27.761Z,3.66
2017-12-19T11:39:33.056Z,3.64
2017-12-19T11:40:38.283Z,3.62
2017-12-19T11:41:44.286Z,3.53
2017-12-19T11:42:50.331Z,3.47
2017-12-19T11:43:56.307Z,3.56
2017-12-19T11:45:02.850Z,3.61
2017-12-19T11:46:09.065Z,3.61
2017-12-19T11:47:15.322Z,3.73
2017-12-19T11:48:21.555Z,3.74
2017-12-19T11:49:27.760Z,3.78
2017-12-19T11:50:34.048Z,3.75
2017-12-19T11:51:40.019Z,3.75
2017-12-19T11:52:46.237Z,3.71
2017-12-19T11:53:52.169Z,3.71
2017-12-19T11:54:58.370Z,3.63
2017-12-19T11:56:04.689Z,3.56
2017-12-19T11:57:10.900Z,3.60
2017-12-19T11:58:17.108Z,3.65
2017-12-19T11:59:23.347Z,3.70
2017-12-19T12:00:28.853Z,3.66
2017-12-19T12:01:35.119Z,3.68
2017-12-19T12:02:41.381Z,3.72
2017-12-19T12:03:47.679Z,3.76
2017-12-19T12:04:53.863Z,3.73
2017-12-19T12:06:00.078Z,3.69
2017-12-19T12:07:06.137Z,3.74
2017-12-19T12:08:12.335Z,3.76
2017-12-19T12:09:18.557Z,3.75
2017-12-19T12:10:24.786Z,3.64
2017-12-19T12:11:30.721Z,3.64
2017-12-19T12:12:36.662Z,3.66
2017-12-19T12:13:42.549Z,3.61
2017-12-19T12:14:48.871Z,3.64
2017-12-19T12:15:55.072Z,3.70
2017-12-19T12:17:01.388Z,3.65
2017-12-19T12:18:07.274Z,3.67
2017-12-19T12:19:13.478Z,3.67
2017-12-19T12:20:19.679Z,3.76
2017-12-19T12:21:25.908Z,3.81
2017-12-19T12:22:31.767Z,3.82
2017-12-19T12:23:37.636Z,3.80
2017-12-19T12:24:43.837Z,3.81
2017-12-19T12:25:49.678Z,3.86
2017-12-19T12:26:54.914Z,3.89
2017-12-19T12:28:00.415Z,3.87
2017-12-19T12:29:06.932Z,3.91
2017-12-19T12:30:13.144Z,3.93
2017-12-19T12:31:19.154Z,3.93
2017-12-19T12:32:25.418Z,3.95
2017-12-19T12:33:31.354Z,3.93
2017-12-19T12:34:37.607Z,3.92
2017-12-19T12:35:43.846Z,3.95
2017-12-19T12:36:50.111Z,3.89
2017-12-19T12:37:56.342Z,3.87
2017-12-19T12:39:02.603Z,3.91
2017-12-19T12:40:07.859Z,3.89
2017-12-19T12:41:14.105Z,3.90
2017-12-19T12:42:20.366Z,3.86
2017-12-19T12:43:26.652Z,3.82
2017-12-19T12:44:32.927Z,3.86
2017-12-19T12:45:39.235Z,3.84
2017-12-19T12:46:45.101Z,3.83
2017-12-19T12:47:51.471Z,3.71
2017-12-19T12:48:57.326Z,3.77
2017-12-19T12:50:03.585Z,3.85
2017-12-19T12:51:09.848Z,3.88
2017-12-19T12:52:15.869Z,3.85
2017-12-19T12:53:22.150Z,3.85
2017-12-19T12:54:28.409Z,3.90
2017-12-19T12:55:34.718Z,3.88
2017-12-19T12:56:41.003Z,3.83
2017-12-19T12:57:48.004Z,3.85
2017-12-19T12:58:54.315Z,3.87
2017-12-19T12:59:59.565Z,3.88
2017-12-19T13:01:05.198Z,3.92
2017-12-19T13:02:10.502Z,4.00
2017-12-19T13:03:15.800Z,3.99
2017-12-19T13:04:21.814Z,3.93
2017-12-19T13:05:27.687Z,3.89
2017-12-19T13:06:33.292Z,3.89
2017-12-19T13:07:39.657Z,3.94
2017-12-19T13:08:45.558Z,3.98
2017-12-19T13:09:51.176Z,4.00
2017-12-19T13:10:56.716Z,4.02
2017-12-19T13:12:02.314Z,4.00
2017-12-19T13:13:08.605Z,3.94
2017-12-19T13:14:15.915Z,3.95
2017-12-19T13:15:21.484Z,3.97
2017-12-19T13:16:27.172Z,3.94
2017-12-19T13:17:32.922Z,3.96
2017-12-19T13:18:39.183Z,3.99
2017-12-19T13:19:45.468Z,4.01
2017-12-19T13:20:51.747Z,4.06
2017-12-19T13:21:58.570Z,4.12
2017-12-19T13:23:04.864Z,4.16
2017-12-19T13:24:11.158Z,4.13
2017-12-19T13:25:17.435Z,4.15
2017-12-19T13:26:23.699Z,4.13
2017-12-19T13:27:29.964Z,4.13
2017-12-19T13:28:36.274Z,4.03
2017-12-19T13:29:42.527Z,4.01
2017-12-19T13:30:49.366Z,4.04
2017-12-19T13:31:55.668Z,4.07
2017-12-19T13:33:01.906Z,4.07
2017-12-19T13:34:08.803Z,4.08
2017-12-19T13:35:15.062Z,4.10
2017-12-19T13:36:21.344Z,4.10
2017-12-19T13:37:27.640Z,4.17
2017-12-19T13:38:33.849Z,4.09
2017-12-19T13:39:40.095Z,4.11
2017-12-19T13:40:46.346Z,4.12
2017-12-19T13:41:52.664Z,4.09
2017-12-19T13:42:58.916Z,4.03
2017-12-19T13:44:05.197Z,4.02
2017-12-19T13:45:11.433Z,4.09
2017-12-19T13:46:18.167Z,4.06
2017-12-19T13:47:24.467Z,3.98
2017-12-19T13:48:30.735Z,3.99
2017-12-19T13:49:37.011Z,3.99
2017-12-19T13:50:43.283Z,4.00
2017-12-19T13:51:49.610Z,4.03
2017-12-19T13:52:55.951Z,3.98
2017-12-19T13:54:02.214Z,4.04
2017-12-19T13:55:08.502Z,4.09
2017-12-19T13:56:14.746Z,4.04
2017-12-19T13:57:21.583Z,4.05
2017-12-19T13:58:27.154Z,4.03
2017-12-19T13:59:33.488Z,4.01
2017-12-19T14:00:39.128Z,4.08
2017-12-19T14:01:45.445Z,4.06
2017-12-19T14:02:51.801Z,4.11
2017-12-19T14:03:58.173Z,4.07
2017-12-19T14:05:04.455Z,4.00
2017-12-19T14:06:10.724Z,4.01
2017-12-19T14:07:17.033Z,4.08
2017-12-19T14:08:23.057Z,4.09
2017-12-19T14:09:29.278Z,4.06
2017-12-19T14:10:35.482Z,4.04
2017-12-19T14:11:41.686Z,4.01
2017-12-19T14:12:47.975Z,4.01
2017-12-19T14:13:54.229Z,4.00
2017-12-19T14:15:00.436Z,4.01
2017-12-19T14:16:06.675Z,3.98
2017-12-19T14:17:12.914Z,4.03
2017-12-19T14:18:19.187Z,4.13
2017-12-19T14:19:25.399Z,4.07
2017-12-19T14:20:31.651Z,4.01
2017-12-19T14:21:37.902Z,3.86
2017-12-19T14:22:43.851Z,3.95
2017-12-19T14:23:50.125Z,3.92
2017-12-19T14:24:56.355Z,3.86
2017-12-19T14:26:02.550Z,3.83
2017-12-19T14:27:09.004Z,3.91
2017-12-19T14:28:15.283Z,3.91
2017-12-19T14:29:21.522Z,3.81
2017-12-19T14:30:27.738Z,3.83
2017-12-19T14:31:33.600Z,3.95
2017-12-19T14:32:39.836Z,3.89
2017-12-19T14:33:46.107Z,3.90
2017-12-19T14:34:52.345Z,3.90
2017-12-19T14:35:58.588Z,3.95
2017-12-19T14:37:04.817Z,3.98
2017-12-19T14:38:11.098Z,3.95
2017-12-19T14:39:17.331Z,3.95
2017-12-19T14:40:23.242Z,3.85
2017-12-19T14:41:29.422Z,3.84
2017-12-19T14:42:35.648Z,3.81
2017-12-19T14:43:41.915Z,3.88
2017-12-19T14:44:48.145Z,3.92
2017-12-19T14:45:54.346Z,3.82